Antimony, UT

2:15 AM MDT on August 30, 2014 (GMT -0600)
Cedar City Regional | Change Station
CLOSE
Current Station
Airport
Location: Cedar City,
Elevation: 5620 ft
Nearby Weather Stations

Elev 5620 ft 37.70 °N, 113.10 °W | Updated 1 hour ago

Clear
Clear
67 °F
Feels Like 67 °F
N
6
Wind Variable Wind from SSE

Today
High -- | Low -- °F
--% Chance of Precip.
Yesterday
High -- | Low -- °F
Precip. -- in
6:56 AM 8:00 PM
Waxing Crescent, 20% visible
Pressure 29.84 in
Visibility 10.0 miles
Clouds Clear
Dew Point 34 °F
Humidity 30%
Rainfall 0.00 in
Snow Depth Not available.
UV 0 out of 12
Pollen 6.90 out of 12
Air Quality Not available.
Flu Activity Not available.
METAR KCDC 300653Z AUTO 16005KT 10SM CLR 19/01 A3009 RMK AO2 SLP103 T01940011 403110089

More Conditions Fewer Conditions

Pressure 29.84 in
Visibility 10.0 miles
Clouds Clear
Dew Point 34 °F
Humidity 30%
Rainfall 0.00 in
Snow Depth Not available.
UV 0 out of 12
Pollen 6.90 out of 12
Air Quality Not available.
Flu Activity Not available.
METAR KCDC 300653Z AUTO 16005KT 10SM CLR 19/01 A3009 RMK AO2 SLP103 T01940011 403110089

More Conditions Fewer Conditions

10-Day Weather Forecast

Almanac

Astronomy

Aug. 30, 2014 Rise Set
Actual Time 6:56 AM MDT 8:00 PM MDT
Civil Twilight 6:29 AM MDT 8:27 PM MDT
Nautical Twilight 5:57 AM MDT 8:59 PM MDT
Astronomical Twilight 5:24 AM MDT 9:33 PM MDT
Moon 11:42 AM MDT 10:43 PM MDT
Length of Visible Light 13h 57m
Length of Day
13h 03m
Tomorrow will be 2m 19s shorter.
Waxing Crescent, 20% of the Moon is Illuminated
Today
Waxing Crescent
Sep 2
First Quarter
Sep 8
Full
Sep 15
Last Quarter
Sep 24
New

Today's Extremes

State Highs State Lows

Community

WunderPhotos

Upload Photos

1,748,468 photos uploaded!

Nearby

Snow Depth

Station Depth Elevation
Clayton Springs 0 in 10000 ft
Merchant Valley 0 in 8750 ft
Agua Canyon 4 in 8900 ft
Long Valley Jct 1 in 7360 ft
Box Creek 1 in 9800 ft

Earthquake Activity

City Distance Mag. Time & Date
No recent earthquake activity has been reported nearby.
Minimum magnitude displayed is 2.5.

Coastal Water Temperatures

Place Temperature
No Stations Reporting

Nearby Weather Stations